Time;durP1;ratioP1;P1;durP2;ratioP2;P2;SDS_P1;SDS_P2;PMS_P1;PMS_P2;Temp;Humidity;BMP_temperature;BMP_pressure;BME280_temperature;BME280_humidity;BME280_pressure;Samples;Min_cycle;Max_cycle;Signal;HPM_P1;HPM_P2
2024/04/18 00:00:06;;;;;;;;;;;2.90;99.90;;;;;;5124848;27;20006;-85
2024/04/18 00:03:02;;;;;;;6.63;4.03;;;2.90;99.90;;;;;;5138311;27;20266;-85
2024/04/18 00:05:53;;;;;;;4.82;3.70;;;2.90;99.90;;;;;;5125673;27;20013;-84
2024/04/18 00:09:14;;;;;;;5.15;3.90;;;2.80;97.80;;;;;;5123831;27;20082;-84
2024/04/18 00:12:35;;;;;;;5.82;3.85;;;2.80;99.90;;;;;;5111124;27;20017;-83
2024/04/18 00:16:05;;;;;;;5.03;4.07;;;2.90;99.90;;;;;;5135965;27;20010;-83
2024/04/18 00:19:36;;;;;;;6.03;4.05;;;2.80;99.90;;;;;;5117462;27;20033;-84
2024/04/18 00:22:58;;;;;;;4.97;3.97;;;2.80;99.90;;;;;;5122227;27;20176;-84
2024/04/18 00:26:46;;;;;;;5.05;4.22;;;2.80;99.90;;;;;;5118833;27;20008;-86
2024/04/18 00:29:59;;;;;;;6.00;4.63;;;2.80;99.90;;;;;;5255784;22;20448;-85
2024/04/18 00:32:49;;;;;;;4.88;3.90;;;2.70;99.90;;;;;;5093046;28;20030;-83
2024/04/18 00:35:48;;;;;;;5.28;4.13;;;2.70;89.60;;;;;;5087487;28;20009;-83
2024/04/18 00:39:15;;;;;;;5.97;4.38;;;2.70;99.90;;;;;;5047524;27;20103;-84
2024/04/18 00:42:27;;;;;;;7.82;4.47;;;2.60;99.90;;;;;;5083224;28;20010;-83
2024/04/18 00:45:30;;;;;;;6.18;3.83;;;2.60;99.90;;;;;;5098807;27;20360;-82
2024/04/18 00:48:44;;;;;;;8.18;4.60;;;2.60;99.90;;;;;;5104764;27;20010;-84
2024/04/18 00:51:33;;;;;;;5.40;4.07;;;2.60;99.90;;;;;;5104680;28;20007;-82
2024/04/18 00:55:26;;;;;;;;;;;;;;;;;;;;;
2024/04/18 01:02:32;;;;;;;5.30;3.90;;;2.50;99.90;;;;;;5109626;27;20021;-81
2024/04/18 01:05:59;;;;;;;4.90;3.83;;;2.50;1.00;;;;;;5096533;27;20034;-84
2024/04/18 01:08:57;;;;;;;7.13;3.85;;;2.50;1.00;;;;;;5091635;28;20398;-84
2024/04/18 01:15:49;;;;;;;7.20;4.45;;;2.50;1.00;;;;;;5092565;27;20986;-83
2024/04/18 01:18:57;;;;;;;6.03;4.13;;;2.50;1.00;;;;;;5100801;27;20124;-81
2024/04/18 01:21:51;;;;;;;5.05;3.80;;;2.50;1.00;;;;;;5102104;28;20039;-82
2024/04/18 01:25:43;;;;;;;6.22;4.00;;;2.50;1.00;;;;;;5103271;27;20030;-82
2024/04/18 01:28:43;;;;;;;5.38;4.10;;;2.50;1.00;;;;;;5100727;28;20453;-84
2024/04/18 01:31:31;;;;;;;11.32;6.78;;;2.50;1.00;;;;;;5112526;27;20007;-81
2024/04/18 01:34:25;;;;;;;9.27;5.40;;;2.50;78.40;;;;;;5093380;27;20007;-82
2024/04/18 01:37:25;;;;;;;6.22;4.90;;;2.50;99.90;;;;;;5085769;28;20006;-81
2024/04/18 01:40:36;;;;;;;6.43;4.85;;;2.40;99.90;;;;;;5059028;27;20010;-83
2024/04/18 01:44:17;;;;;;;6.03;4.97;;;2.40;99.90;;;;;;5077326;28;20046;-82
2024/04/18 01:47:28;;;;;;;6.03;4.57;;;2.40;99.90;;;;;;5178229;22;20642;-83
2024/04/18 01:50:26;;;;;;;7.97;5.95;;;2.40;99.90;;;;;;5112693;27;20086;-82
2024/04/18 01:53:23;;;;;;;15.20;9.48;;;2.40;99.90;;;;;;5127183;27;20354;-85
2024/04/18 01:56:13;;;;;;;25.30;10.55;;;2.40;99.90;;;;;;5126294;27;20005;-84
2024/04/18 01:59:23;;;;;;;9.55;6.65;;;2.40;99.90;;;;;;5128604;27;20611;-81
2024/04/18 02:02:11;;;;;;;9.27;6.78;;;2.50;1.00;;;;;;5134212;27;20550;-79
2024/04/18 02:05:01;;;;;;;11.38;8.02;;;2.50;1.00;;;;;;5134153;27;20020;-81
2024/04/18 02:07:51;;;;;;;8.23;6.05;;;2.50;1.00;;;;;;5136467;27;20005;-83
2024/04/18 02:10:58;;;;;;;9.23;6.97;;;2.50;29.30;;;;;;5138497;27;20001;-82
2024/04/18 02:13:59;;;;;;;8.32;7.22;;;2.50;99.90;;;;;;5143940;27;20016;-84
2024/04/18 02:16:55;;;;;;;12.45;8.70;;;2.60;99.90;;;;;;5124266;27;20012;-83
2024/04/18 02:19:51;;;;;;;10.63;9.18;;;2.60;99.90;;;;;;5123627;27;20035;-85
2024/04/18 02:22:38;;;;;;;13.10;9.73;;;2.60;99.90;;;;;;5117924;27;20013;-84
2024/04/18 02:25:53;;;;;;;11.07;9.05;;;2.60;99.90;;;;;;5124897;27;20030;-83
2024/04/18 02:28:40;;;;;;;16.33;10.43;;;2.70;99.90;;;;;;5124133;27;20013;-83
2024/04/18 02:31:31;;;;;;;11.18;9.25;;;2.60;99.90;;;;;;5120837;27;20113;-85
2024/04/18 02:38:52;;;;;;;12.52;9.00;;;2.60;1.00;;;;;;5095753;27;20013;-80
2024/04/18 02:41:39;;;;;;;13.23;7.97;;;2.70;1.00;;;;;;5126126;27;20006;-83
2024/04/18 02:49:45;;;;;;;11.13;7.27;;;2.60;1.00;;;;;;5017483;27;20022;-83
2024/04/18 02:53:58;;;;;;;12.07;6.97;;;2.50;1.00;;;;;;5110721;27;20010;-84
2024/04/18 02:57:08;;;;;;;10.23;6.78;;;2.50;99.90;;;;;;5134567;27;20006;-85
2024/04/18 03:00:06;;;;;;;8.60;6.85;;;2.50;99.90;;;;;;5155243;27;20025;-83
2024/04/18 03:03:19;;;;;;;9.55;7.10;;;2.50;99.90;;;;;;5126914;27;20181;-83
2024/04/18 03:06:26;;;;;;;7.07;5.27;;;2.50;1.00;;;;;;5134812;27;20038;-84
2024/04/18 03:09:14;;;;;;;11.10;7.80;;;2.50;99.90;;;;;;5121667;27;20060;-85
2024/04/18 03:12:26;;;;;;;13.82;8.35;;;2.50;99.90;;;;;;5126487;27;20478;-86
2024/04/18 03:15:25;;;;;;;12.32;8.43;;;2.50;99.90;;;;;;5134492;27;20013;-84
2024/04/18 03:18:13;;;;;;;10.18;6.82;;;2.50;1.00;;;;;;5138005;27;20013;-84
2024/04/18 03:21:11;;;;;;;9.90;6.95;;;2.40;1.00;;;;;;5132262;27;20156;-85
2024/04/18 03:24:01;;;;;;;9.98;7.30;;;2.40;1.00;;;;;;5123518;27;20024;-83
2024/04/18 03:30:28;;;;;;;9.70;6.82;;;2.40;1.00;;;;;;5130977;27;20132;-81
2024/04/18 03:33:25;;;;;;;11.02;7.22;;;2.40;84.00;;;;;;5135817;27;20021;-85
2024/04/18 03:36:15;;;;;;;10.30;7.18;;;2.40;73.70;;;;;;5117540;27;20002;-84
2024/04/18 03:39:02;;;;;;;10.88;7.20;;;2.40;99.90;;;;;;5122944;27;20013;-83
2024/04/18 03:42:00;;;;;;;8.93;6.40;;;2.40;99.90;;;;;;5118179;27;20646;-82
2024/04/18 03:45:03;;;;;;;10.48;7.53;;;2.40;99.90;;;;;;5123769;27;20027;-83
2024/04/18 03:48:18;;;;;;;11.23;7.60;;;2.40;99.90;;;;;;5110788;27;20047;-83
2024/04/18 03:51:30;;;;;;;;;;;;;;;;;;;;;
2024/04/18 03:54:44;;;;;;;10.52;6.88;;;2.30;99.90;;;;;;5111263;27;20515;-83
2024/04/18 03:57:47;;;;;;;9.27;6.20;;;2.30;99.90;;;;;;5032872;28;20350;-85
2024/04/18 04:00:43;;;;;;;8.80;6.65;;;2.30;99.90;;;;;;5056473;28;20010;-80
2024/04/18 04:03:35;;;;;;;9.55;6.45;;;2.20;99.90;;;;;;5045937;28;20022;-83
2024/04/18 04:06:31;;;;;;;13.07;6.18;;;2.10;99.90;;;;;;5058756;28;20019;-85
2024/04/18 04:09:21;;;;;;;11.02;6.40;;;2.00;99.90;;;;;;5112710;27;20070;-84
2024/04/18 04:12:09;;;;;;;8.90;6.40;;;2.00;99.90;;;;;;5128315;27;20090;-85
2024/04/18 04:14:58;;;;;;;9.85;6.82;;;2.00;99.90;;;;;;5114442;27;20088;-83
2024/04/18 04:17:58;;;;;;;9.77;6.88;;;1.90;99.90;;;;;;5122341;27;20016;-84
2024/04/18 04:20:45;;;;;;;9.90;6.75;;;1.90;99.90;;;;;;5124715;27;20037;-84
2024/04/18 04:23:33;;;;;;;11.18;7.75;;;1.80;99.90;;;;;;5117155;27;20320;-85
2024/04/18 04:26:51;;;;;;;;;;;;;;;;;;;;;
2024/04/18 04:30:28;;;;;;;14.02;8.00;;;1.80;99.90;;;;;;5118772;27;20081;-83
2024/04/18 04:36:56;;;;;;;14.43;8.68;;;2.00;1.00;;;;;;5136677;27;20097;-83
2024/04/18 04:39:49;;;;;;;13.43;9.07;;;2.00;1.00;;;;;;5118955;27;20025;-81
2024/04/18 04:42:50;;;;;;;;;;;;;;;;;;;;;
2024/04/18 04:49:27;;;;;;;16.30;10.38;;;2.30;1.00;;;;;;5122036;27;20009;-84
2024/04/18 04:52:15;;;;;;;11.30;8.20;;;2.30;1.00;;;;;;5121570;27;20173;-83
2024/04/18 04:55:10;;;;;;;16.92;11.07;;;2.30;1.00;;;;;;5102256;27;20486;-83
2024/04/18 04:58:10;;;;;;;15.02;10.57;;;2.40;15.90;;;;;;5125019;27;20020;-84
2024/04/18 05:01:07;;;;;;;15.50;10.20;;;2.50;54.90;;;;;;5146000;27;20009;-85
2024/04/18 05:04:36;;;;;;;18.67;9.65;;;2.50;80.10;;;;;;5107699;27;20009;-79
2024/04/18 05:08:32;;;;;;;16.63;10.75;;;2.50;92.40;;;;;;5130148;27;20006;-83
2024/04/18 05:12:24;;;;;;;17.40;11.52;;;2.50;99.90;;;;;;5063827;27;20007;-84
2024/04/18 05:15:28;;;;;;;13.75;9.20;;;2.50;99.90;;;;;;5063190;27;20030;-83
2024/04/18 05:22:43;;;;;;;21.50;12.77;;;2.60;99.90;;;;;;5022160;27;20412;-85
2024/04/18 05:25:37;;;;;;;22.15;13.75;;;2.60;99.90;;;;;;5097616;27;20072;-84
2024/04/18 05:28:40;;;;;;;20.52;12.32;;;2.70;99.90;;;;;;5082917;27;20009;-82
2024/04/18 05:31:34;;;;;;;18.63;11.95;;;2.70;99.90;;;;;;5116031;27;20013;-83
2024/04/18 05:34:25;;;;;;;18.55;11.57;;;2.90;99.90;;;;;;5126238;27;20743;-82
2024/04/18 05:37:17;;;;;;;15.57;10.80;;;2.90;99.90;;;;;;5119414;27;20013;-79
2024/04/18 05:40:14;;;;;;;14.18;10.23;;;2.90;99.90;;;;;;5131420;27;20051;-85
2024/04/18 05:43:10;;;;;;;14.30;10.40;;;2.90;99.90;;;;;;5116393;27;20504;-82
2024/04/18 05:46:09;;;;;;;16.25;11.40;;;2.90;99.90;;;;;;5124809;27;20016;-81
2024/04/18 05:49:04;;;;;;;14.77;10.95;;;2.90;99.90;;;;;;5277377;22;20073;-83
2024/04/18 05:52:22;;;;;;;16.70;10.85;;;3.00;99.90;;;;;;5149781;27;20578;-80
2024/04/18 05:55:40;;;;;;;14.27;10.68;;;3.00;99.90;;;;;;4988827;28;20026;-80
2024/04/18 05:58:29;;;;;;;14.82;11.13;;;3.20;99.90;;;;;;4982977;28;20452;-81
2024/04/18 06:01:18;;;;;;;14.02;10.93;;;3.30;99.90;;;;;;4967283;28;20023;-82
2024/04/18 06:04:10;;;;;;;14.00;10.07;;;3.40;99.90;;;;;;4951023;28;20036;-83
2024/04/18 06:07:00;;;;;;;13.85;10.02;;;3.50;99.90;;;;;;4965448;28;20024;-81
2024/04/18 06:09:52;;;;;;;11.60;9.30;;;3.60;82.80;;;;;;4974044;28;20018;-82
2024/04/18 06:12:41;;;;;;;11.00;9.00;;;3.70;35.10;;;;;;5044428;27;20009;-82
2024/04/18 06:15:29;;;;;;;11.18;9.35;;;3.80;1.00;;;;;;5114862;27;20024;-80
2024/04/18 06:18:17;;;;;;;11.43;8.38;;;3.90;1.00;;;;;;5131874;27;20001;-81
2024/04/18 06:21:06;;;;;;;9.25;7.82;;;4.10;1.00;;;;;;5144870;27;20486;-82
2024/04/18 06:23:55;;;;;;;10.23;8.38;;;4.20;99.90;;;;;;5126084;27;20024;-80
2024/04/18 06:26:43;;;;;;;9.98;8.18;;;4.40;99.90;;;;;;5126791;27;20045;-81
2024/04/18 06:29:30;;;;;;;7.90;7.10;;;4.50;90.20;;;;;;5130802;27;20430;-80
2024/04/18 06:32:30;;;;;;;7.80;7.00;;;4.50;1.00;;;;;;5121865;27;20013;-80
2024/04/18 06:35:26;;;;;;;8.55;7.47;;;4.50;99.90;;;;;;5124224;27;20059;-81
2024/04/18 06:38:25;;;;;;;8.32;7.15;;;4.70;1.60;;;;;;5115854;27;20110;-82
2024/04/18 06:41:19;;;;;;;7.35;6.50;;;4.80;99.90;;;;;;5140751;27;20037;-83
2024/04/18 06:44:07;;;;;;;7.88;6.47;;;4.90;1.00;;;;;;5129158;27;20009;-81
2024/04/18 06:46:55;;;;;;;7.82;6.80;;;4.90;99.90;;;;;;5124362;27;20017;-81
2024/04/18 06:49:53;;;;;;;7.47;6.68;;;5.00;1.00;;;;;;5118861;27;20089;-84
2024/04/18 06:52:41;;;;;;;7.78;6.30;;;5.00;99.90;;;;;;5121884;27;20155;-80
2024/04/18 06:55:29;;;;;;;6.80;6.10;;;5.00;1.00;;;;;;5125424;27;20002;-83
2024/04/18 06:58:20;;;;;;;7.35;6.50;;;5.00;99.90;;;;;;5118737;27;20021;-81
2024/04/18 07:01:13;;;;;;;7.05;5.80;;;5.00;99.90;;;;;;5119384;27;20009;-81
2024/04/18 07:04:04;;;;;;;6.55;5.93;;;5.00;1.00;;;;;;5140011;27;20009;-80
2024/04/18 07:06:51;;;;;;;7.50;6.60;;;5.00;99.90;;;;;;5118097;27;20050;-82
2024/04/18 07:09:39;;;;;;;7.93;7.00;;;5.00;99.90;;;;;;5129801;27;20118;-84
2024/04/18 07:12:33;;;;;;;9.88;7.10;;;5.00;99.90;;;;;;5139943;27;20511;-81
2024/04/18 07:15:20;;;;;;;7.40;6.65;;;5.00;51.90;;;;;;5132240;27;20520;-78
2024/04/18 07:18:09;;;;;;;8.93;7.25;;;5.10;1.00;;;;;;5121363;27;20044;-80
2024/04/18 07:20:59;;;;;;;10.98;8.13;;;5.20;1.00;;;;;;5145646;27;20023;-80
2024/04/18 07:23:49;;;;;;;11.80;7.35;;;5.20;99.90;;;;;;5125639;27;20013;-81
2024/04/18 07:26:38;;;;;;;10.02;6.90;;;5.40;99.90;;;;;;5123782;27;20013;-82
2024/04/18 07:29:26;;;;;;;6.88;6.15;;;5.40;99.90;;;;;;5126508;27;20022;-82
2024/04/18 07:32:13;;;;;;;6.22;4.50;;;5.60;1.00;;;;;;5120213;27;20009;-80
2024/04/18 07:35:02;;;;;;;6.50;4.38;;;5.60;99.90;;;;;;5126607;27;20016;-80
2024/04/18 07:37:53;;;;;;;5.40;4.90;;;5.60;16.90;;;;;;5118942;27;20108;-80
2024/04/18 07:40:41;;;;;;;5.45;3.85;;;6.00;1.00;;;;;;5124610;27;20013;-81
2024/04/18 07:43:29;;;;;;;3.72;3.40;;;6.40;1.00;;;;;;5119786;27;20024;-80
2024/04/18 07:46:19;;;;;;;4.35;3.58;;;7.00;99.90;;;;;;5120205;27;20009;-83
2024/04/18 07:49:07;;;;;;;3.30;3.00;;;7.50;90.70;;;;;;5120658;27;20006;-81
2024/04/18 07:51:55;;;;;;;4.50;3.67;;;7.80;1.00;;;;;;5132635;27;20009;-82
2024/04/18 07:54:55;;;;;;;4.70;3.50;;;7.90;99.90;;;;;;5144338;27;20042;-80
2024/04/18 07:57:43;;;;;;;5.38;3.25;;;7.50;99.90;;;;;;5132023;27;20016;-82
2024/04/18 08:00:41;;;;;;;4.30;3.90;;;7.20;99.90;;;;;;5140880;27;20017;-80
2024/04/18 08:03:30;;;;;;;5.70;4.03;;;6.50;99.20;;;;;;5134592;27;20475;-80
2024/04/18 08:06:26;;;;;;;5.60;4.38;;;5.60;99.90;;;;;;5107358;27;20475;-79
2024/04/18 08:09:36;;;;;;;4.05;3.65;;;4.90;99.90;;;;;;5141570;27;20020;-79
2024/04/18 08:12:28;;;;;;;3.22;2.92;;;4.40;99.90;;;;;;5139480;27;20507;-79
2024/04/18 08:15:20;;;;;;;;;;;4.00;99.90;;;;;;5140922;27;20344;-81
2024/04/18 08:18:16;;;;;;;3.58;3.22;;;3.60;1.00;;;;;;5115369;27;20374;-79
2024/04/18 08:21:04;;;;;;;3.40;2.88;;;3.30;5.50;;;;;;5138182;27;20045;-79
2024/04/18 08:23:52;;;;;;;5.18;3.28;;;3.10;99.90;;;;;;5139347;27;20091;-80
2024/04/18 08:26:40;;;;;;;5.15;4.10;;;3.00;99.90;;;;;;5121439;27;20335;-81
2024/04/18 08:29:32;;;;;;;5.53;4.45;;;3.00;1.00;;;;;;5139585;27;20005;-81
2024/04/18 08:32:20;;;;;;;;;;;3.10;16.90;;;;;;5122113;27;20001;-79
2024/04/18 08:35:11;;;;;;;5.97;4.93;;;3.50;99.90;;;;;;5124398;27;19940;-79
2024/04/18 08:37:59;;;;;;;7.22;6.10;;;4.10;20.30;;;;;;5129679;27;20009;-80
2024/04/18 08:40:49;;;;;;;8.40;6.85;;;4.60;99.90;;;;;;5126052;27;20013;-80
2024/04/18 08:43:37;;;;;;;7.00;5.97;;;5.20;1.00;;;;;;5127458;27;20025;-80
2024/04/18 08:46:25;;;;;;;9.35;7.88;;;5.50;1.00;;;;;;5120147;27;20041;-81
2024/04/18 08:49:19;;;;;;;7.28;6.40;;;5.80;99.90;;;;;;5125186;27;20097;-80
2024/04/18 08:52:18;;;;;;;5.37;4.87;;;6.20;99.90;;;;;;5147922;27;20010;-80
2024/04/18 08:55:07;;;;;;;5.60;4.65;;;6.70;99.90;;;;;;5129069;27;20005;-81
2024/04/18 08:58:05;;;;;;;7.65;5.10;;;6.80;99.90;;;;;;5164729;27;20009;-80
2024/04/18 09:00:54;;;;;;;6.72;4.90;;;7.00;99.90;;;;;;5139713;27;20085;-81
2024/04/18 09:03:47;;;;;;;;;;;7.70;99.90;;;;;;5125741;27;20029;-81
2024/04/18 09:06:58;;;;;;;4.97;4.25;;;7.80;66.70;;;;;;5135117;27;20363;-82
2024/04/18 09:10:11;;;;;;;;;;;7.80;1.00;;;;;;5138352;27;20005;-82
2024/04/18 09:13:01;;;;;;;5.05;4.15;;;8.00;99.90;;;;;;5120639;27;20393;-83
2024/04/18 09:15:53;;;;;;;4.28;3.63;;;8.70;99.90;;;;;;5120731;27;20442;-83
2024/04/18 09:18:44;;;;;;;4.70;3.47;;;8.90;99.90;;;;;;5140354;27;20013;-79
2024/04/18 09:21:36;;;;;;;7.03;4.03;;;8.60;1.00;;;;;;5140585;27;20029;-82
2024/04/18 09:24:43;;;;;;;3.70;3.25;;;8.30;99.90;;;;;;5140566;27;20136;-83
2024/04/18 09:27:55;;;;;;;7.03;3.80;;;7.70;99.90;;;;;;5133717;27;20025;-79
2024/04/18 09:30:58;;;;;;;6.22;4.38;;;7.20;99.90;;;;;;5119382;27;20018;-82
2024/04/18 09:33:56;;;;;;;5.78;4.50;;;7.20;99.90;;;;;;5126101;27;20001;-81
2024/04/18 09:36:50;;;;;;;5.72;4.63;;;7.50;99.90;;;;;;5155283;27;20013;-82
2024/04/18 09:39:57;;;;;;;4.38;3.25;;;8.80;1.00;;;;;;5136839;27;20001;-82
2024/04/18 09:43:07;;;;;;;3.05;2.83;;;10.10;99.90;;;;;;5126883;27;20438;-81
2024/04/18 09:46:40;;;;;;;2.85;2.50;;;11.00;99.90;;;;;;5118800;27;21068;-85
2024/04/18 09:49:46;;;;;;;3.97;2.70;;;11.20;44.60;;;;;;5133535;27;20009;-84
2024/04/18 09:52:40;;;;;;;3.55;2.58;;;11.80;1.00;;;;;;5128505;27;20005;-84
2024/04/18 09:55:35;;;;;;;2.42;2.10;;;13.00;1.00;;;;;;5123258;27;20053;-85
2024/04/18 09:58:55;;;;;;;1.63;1.52;;;13.50;99.90;;;;;;5120230;27;20090;-84
2024/04/18 10:01:56;;;;;;;4.82;2.30;;;13.00;99.90;;;;;;5121251;27;20814;-83
2024/04/18 10:04:53;;;;;;;3.42;2.60;;;11.80;99.90;;;;;;5123172;27;20084;-81
2024/04/18 10:07:50;;;;;;;3.00;2.50;;;11.00;99.90;;;;;;5120560;27;20013;-84
2024/04/18 10:11:14;;;;;;;2.75;2.55;;;11.70;99.90;;;;;;5135334;27;20010;-82
2024/04/18 10:32:05;;;;;;;2.70;2.50;;;17.30;27.10;;;;;;5115057;27;20019;-83
2024/04/18 10:34:59;;;;;;;4.22;2.70;;;15.10;1.00;;;;;;5124604;27;20020;-82
2024/04/18 10:37:50;;;;;;;2.78;2.45;;;13.10;1.00;;;;;;5125851;27;20023;-83
2024/04/18 10:41:05;;;;;;;4.63;2.70;;;11.50;1.00;;;;;;5098014;27;20009;-83
2024/04/18 10:43:57;;;;;;;3.67;2.90;;;10.40;5.30;;;;;;5114500;27;20016;-80
2024/04/18 10:46:46;;;;;;;4.18;3.13;;;10.10;12.40;;;;;;5130861;27;20016;-81
2024/04/18 10:49:39;;;;;;;3.60;3.30;;;9.90;20.70;;;;;;5111033;27;20055;-80
2024/04/18 10:52:29;;;;;;;6.22;3.67;;;11.30;78.70;;;;;;5120374;27;20033;-82
2024/04/18 10:55:21;;;;;;;5.50;4.00;;;12.30;48.00;;;;;;5115809;27;20002;-81
2024/04/18 10:58:24;;;;;;;5.00;3.28;;;13.30;43.90;;;;;;5119950;27;20050;-78
2024/04/18 11:01:19;;;;;;;3.85;2.50;;;13.50;1.00;;;;;;5110999;27;20005;-79
2024/04/18 11:04:50;;;;;;;;;;;12.60;1.00;;;;;;5109367;27;20558;-81
2024/04/18 11:07:50;;;;;;;6.68;4.38;;;10.90;1.00;;;;;;5124264;27;19933;-81
2024/04/18 11:10:45;;;;;;;4.68;4.13;;;8.90;57.10;;;;;;5103394;27;20017;-84
2024/04/18 11:13:33;;;;;;;7.68;4.45;;;7.60;99.90;;;;;;5100757;27;20007;-82
2024/04/18 11:16:30;;;;;;;4.07;3.67;;;7.00;99.90;;;;;;5101670;27;21058;-84
2024/04/18 11:19:25;;;;;;;4.90;4.40;;;6.60;99.90;;;;;;5103659;27;20018;-83
2024/04/18 11:22:29;;;;;;;6.05;4.28;;;6.50;99.90;;;;;;5093198;27;20070;-83
2024/04/18 11:25:21;;;;;;;6.95;4.75;;;6.60;99.90;;;;;;5092622;27;20002;-86
2024/04/18 11:28:14;;;;;;;5.63;3.40;;;7.10;99.90;;;;;;5101803;27;20022;-85
2024/04/18 11:31:06;;;;;;;5.45;3.22;;;7.60;1.00;;;;;;5108495;27;20026;-79
2024/04/18 11:33:58;;;;;;;3.67;3.33;;;7.80;99.90;;;;;;5095940;27;20018;-86
2024/04/18 11:36:56;;;;;;;4.47;3.83;;;8.00;99.90;;;;;;5105675;27;20016;-78
2024/04/18 11:39:48;;;;;;;5.78;4.65;;;8.20;99.90;;;;;;5113300;27;20014;-79
2024/04/18 11:42:45;;;;;;;6.90;4.03;;;8.60;99.90;;;;;;5123841;27;20068;-81
2024/04/18 11:45:35;;;;;;;6.32;4.38;;;9.10;99.90;;;;;;5096654;27;20017;-80
2024/04/18 11:48:30;;;;;;;4.75;3.20;;;9.70;99.90;;;;;;5119636;27;20008;-82
2024/04/18 11:51:59;;;;;;;8.88;3.67;;;10.50;99.90;;;;;;5130910;27;19994;-79
2024/04/18 11:55:01;;;;;;;4.82;3.33;;;11.20;99.90;;;;;;5106718;27;20018;-80
2024/04/18 11:58:07;;;;;;;3.40;3.10;;;12.50;99.90;;;;;;5124391;27;20002;-80
2024/04/18 12:00:58;;;;;;;4.25;3.00;;;13.10;99.90;;;;;;5109464;27;20030;-81
2024/04/18 12:03:46;;;;;;;3.25;2.80;;;14.80;99.90;;;;;;5110024;27;20014;-78
2024/04/18 12:07:25;;;;;;;4.30;2.60;;;16.10;70.60;;;;;;5117842;27;20013;-83
2024/04/18 12:10:14;;;;;;;2.10;2.00;;;17.20;15.00;;;;;;5111699;27;20021;-80
2024/04/18 12:13:04;;;;;;;4.03;2.63;;;15.80;1.00;;;;;;5129373;27;20013;-82
2024/04/18 12:15:59;;;;;;;4.78;3.30;;;13.90;1.00;;;;;;5105902;27;20010;-79
2024/04/18 12:18:57;;;;;;;5.38;3.45;;;12.50;1.00;;;;;;5110767;27;20010;-79
2024/04/18 12:21:56;;;;;;;3.75;3.20;;;11.70;1.00;;;;;;5113390;27;20013;-84
2024/04/18 12:24:50;;;;;;;5.43;3.42;;;12.10;1.00;;;;;;5108766;27;20049;-80
2024/04/18 12:27:58;;;;;;;4.97;2.90;;;13.30;1.00;;;;;;5105867;27;20009;-81
2024/04/18 12:34:58;;;;;;;3.88;3.22;;;16.50;1.00;;;;;;5092527;27;20153;-84
2024/04/18 12:38:02;;;;;;;3.47;2.67;;;16.30;1.00;;;;;;5090658;27;20025;-83
2024/04/18 12:41:16;;;;;;;2.90;2.70;;;15.50;1.00;;;;;;5106044;27;20006;-82
2024/04/18 12:44:27;;;;;;;3.28;2.85;;;14.60;1.00;;;;;;5091514;27;20431;-82
2024/04/18 12:47:25;;;;;;;2.53;2.30;;;14.70;1.00;;;;;;5096084;27;20019;-84
2024/04/18 12:50:33;;;;;;;3.95;2.47;;;15.30;1.00;;;;;;5088259;27;20006;-84
2024/04/18 12:53:26;;;;;;;3.53;2.78;;;14.30;1.00;;;;;;5090349;27;20419;-82
2024/04/18 12:56:19;;;;;;;4.40;3.13;;;12.50;1.00;;;;;;5097905;27;20066;-85
2024/04/18 12:59:08;;;;;;;3.17;2.53;;;11.40;1.00;;;;;;5093120;27;20066;-86
2024/04/18 13:01:57;;;;;;;3.05;2.75;;;10.70;1.00;;;;;;5085333;27;20432;-83
2024/04/18 13:04:44;;;;;;;3.65;3.30;;;10.20;1.00;;;;;;5095829;27;20026;-83
2024/04/18 13:07:32;;;;;;;4.80;3.08;;;9.80;1.00;;;;;;5116166;27;20010;-82
2024/04/18 13:10:24;;;;;;;4.30;3.90;;;9.30;1.00;;;;;;5092274;27;20005;-83
2024/04/18 13:13:15;;;;;;;5.32;4.25;;;8.90;9.70;;;;;;5095907;27;20009;-83
2024/04/18 13:16:15;;;;;;;4.15;3.67;;;8.60;26.70;;;;;;5098563;27;20063;-83
2024/04/18 13:20:05;;;;;;;;;;;;;;;;;;;;;
2024/04/18 13:23:23;;;;;;;5.88;4.20;;;8.30;92.90;;;;;;5100688;27;20443;-86
2024/04/18 13:26:43;;;;;;;5.60;4.72;;;8.60;99.90;;;;;;5095655;27;20010;-84
2024/04/18 13:30:03;;;;;;;4.70;3.75;;;9.00;98.40;;;;;;5104433;27;20009;-83
2024/04/18 13:32:52;;;;;;;6.03;4.28;;;9.40;84.70;;;;;;4965869;27;3870289;-80
2024/04/18 13:35:42;;;;;;;5.00;4.18;;;9.70;68.30;;;;;;5097778;27;20137;-85
2024/04/18 13:38:32;;;;;;;6.72;4.40;;;9.60;65.90;;;;;;5096192;27;20018;-85
2024/04/18 13:41:36;;;;;;;4.80;4.30;;;9.60;94.70;;;;;;5096330;27;20006;-85
2024/04/18 13:44:43;;;;;;;5.53;4.40;;;9.50;96.50;;;;;;5084161;27;20010;-84
2024/04/18 13:47:40;;;;;;;3.95;3.55;;;9.60;98.70;;;;;;5096381;27;20021;-83
2024/04/18 13:50:56;;;;;;;4.43;3.95;;;9.60;91.00;;;;;;5094708;27;20006;-83
2024/04/18 13:54:42;;;;;;;5.70;3.70;;;9.80;78.80;;;;;;5112621;27;20009;-81
2024/04/18 14:03:00;;;;;;;3.50;2.97;;;10.70;24.90;;;;;;5023880;27;20016;-80
2024/04/18 14:06:31;;;;;;;;;;;;;;;;;;;;;
2024/04/18 14:09:40;;;;;;;4.63;4.03;;;10.20;11.20;;;;;;5123539;27;20014;-79
2024/04/18 14:12:28;;;;;;;6.20;4.22;;;9.60;47.90;;;;;;5131759;27;19998;-78
2024/04/18 14:15:35;;;;;;;5.63;4.80;;;8.80;99.90;;;;;;5113392;27;20089;-81
2024/04/18 14:18:51;;;;;;;4.30;3.75;;;8.40;99.90;;;;;;5104725;27;20328;-81
2024/04/18 14:21:42;;;;;;;5.75;4.18;;;7.90;99.90;;;;;;5111636;27;20587;-82
2024/04/18 14:24:56;;;;;;;5.32;4.50;;;7.60;99.90;;;;;;5105924;27;20017;-83
2024/04/18 14:36:40;;;;;;;8.20;5.13;;;9.00;1.00;;;;;;5097837;27;20562;-81
2024/04/18 14:42:34;;;;;;;8.20;3.35;;;14.30;99.90;;;;;;5166150;22;20005;-81
2024/04/18 14:45:42;;;;;;;3.25;2.88;;;14.90;99.90;;;;;;5129811;27;20018;-81
2024/04/18 14:49:19;;;;;;;4.25;3.10;;;16.10;94.40;;;;;;5121202;27;20525;-83
2024/04/18 14:52:22;;;;;;;2.22;2.03;;;17.60;23.90;;;;;;5118880;27;20041;-80
2024/04/18 14:55:24;;;;;;;2.78;2.58;;;18.10;1.00;;;;;;5107872;27;20556;-82
2024/04/18 14:58:28;;;;;;;4.65;2.10;;;18.10;1.00;;;;;;5121104;27;20016;-85
2024/04/18 15:01:47;;;;;;;5.47;2.10;;;18.30;1.00;;;;;;5115599;27;20006;-83
2024/04/18 15:05:14;;;;;;;2.65;2.45;;;17.70;1.00;;;;;;5121229;27;20266;-83
2024/04/18 15:08:31;;;;;;;2.67;1.80;;;16.70;1.00;;;;;;5099401;27;20024;-81
2024/04/18 15:11:32;;;;;;;3.13;1.83;;;17.20;1.00;;;;;;5120881;27;20033;-83
2024/04/18 15:14:20;;;;;;;2.25;2.00;;;17.30;1.00;;;;;;5113935;27;20020;-84
2024/04/18 15:17:15;;;;;;;1.70;1.60;;;16.70;1.00;;;;;;5122246;27;20009;-81
2024/04/18 15:20:12;;;;;;;1.60;1.50;;;14.80;1.00;;;;;;5121024;27;20017;-81
2024/04/18 15:23:11;;;;;;;1.63;1.40;;;14.70;1.00;;;;;;5128852;27;20013;-80
2024/04/18 15:25:59;;;;;;;1.52;1.42;;;14.50;1.00;;;;;;5121344;27;20049;-81
2024/04/18 15:29:03;;;;;;;1.67;1.58;;;12.90;1.00;;;;;;5124832;27;20009;-82
2024/04/18 15:32:06;;;;;;;1.50;1.40;;;11.40;1.00;;;;;;5122322;27;20009;-82
2024/04/18 15:34:57;;;;;;;3.33;2.10;;;10.40;1.00;;;;;;5125590;27;20009;-82
2024/04/18 15:37:53;;;;;;;2.60;2.40;;;9.70;1.00;;;;;;5121985;27;20019;-83
2024/04/18 15:40:44;;;;;;;3.50;1.92;;;9.40;3.50;;;;;;5125880;27;20009;-82
2024/04/18 15:44:00;;;;;;;2.28;2.10;;;9.70;27.50;;;;;;5120992;27;20038;-82
2024/04/18 15:47:36;;;;;;;2.20;1.83;;;9.60;12.40;;;;;;5119671;27;20009;-82
2024/04/18 15:50:50;;;;;;;2.42;2.00;;;9.30;17.60;;;;;;5125882;27;20009;-81
2024/04/18 15:54:11;;;;;;;3.63;2.50;;;8.80;33.30;;;;;;5112151;27;20009;-83
2024/04/18 15:57:45;;;;;;;3.38;2.90;;;8.50;40.60;;;;;;5132635;27;20042;-83
2024/04/18 16:00:40;;;;;;;11.48;3.00;;;8.20;68.40;;;;;;5129080;27;20017;-84
2024/04/18 16:03:31;;;;;;;4.88;3.65;;;7.90;75.10;;;;;;5130949;27;20025;-82
2024/04/18 16:06:41;;;;;;;3.10;2.67;;;8.60;99.90;;;;;;5129203;27;20009;-82
2024/04/18 16:09:43;;;;;;;4.10;3.33;;;10.20;98.90;;;;;;5122610;27;20351;-82
2024/04/18 16:16:46;;;;;;;3.50;3.03;;;13.20;1.00;;;;;;5119827;27;20396;-84
2024/04/18 16:20:06;;;;;;;8.27;2.83;;;13.70;1.00;;;;;;5114459;27;20005;-85
2024/04/18 16:24:07;;;;;;;4.50;3.33;;;13.70;1.00;;;;;;5131326;27;20009;-83
2024/04/18 16:27:40;;;;;;;3.58;3.03;;;13.70;1.00;;;;;;5129658;27;20089;-84
2024/04/18 16:30:58;;;;;;;5.38;3.38;;;13.80;1.00;;;;;;5047098;27;20516;-83
2024/04/18 16:34:05;;;;;;;5.03;4.00;;;12.30;1.00;;;;;;5108095;27;20088;-80
2024/04/18 16:37:41;;;;;;;;;;;;;;;;;;;;;
2024/04/18 16:40:44;;;;;;;4.40;3.25;;;9.00;9.90;;;;;;5120248;27;20013;-85
2024/04/18 16:43:46;;;;;;;6.00;3.50;;;8.00;99.90;;;;;;5135891;27;20013;-83
2024/04/18 16:50:52;;;;;;;;;;;;;;;;;;;;;
2024/04/18 16:53:51;;;;;;;4.95;4.10;;;7.20;99.90;;;;;;5119736;27;20017;-84
2024/04/18 16:56:45;;;;;;;6.28;3.85;;;7.10;99.90;;;;;;5135951;27;20076;-83
2024/04/18 16:59:33;;;;;;;4.65;4.10;;;7.10;99.90;;;;;;5119937;27;20032;-85
2024/04/18 17:02:59;;;;;;;4.35;3.78;;;7.00;99.90;;;;;;5125836;27;20013;-84
2024/04/18 17:06:17;;;;;;;6.88;4.53;;;6.90;99.90;;;;;;5120708;27;20010;-83
2024/04/18 17:09:29;;;;;;;6.47;4.45;;;6.60;99.90;;;;;;5123460;27;20531;-82
2024/04/18 17:12:47;;;;;;;6.45;4.70;;;6.40;99.90;;;;;;5129094;27;20036;-84
2024/04/18 17:15:49;;;;;;;4.78;4.25;;;6.20;1.00;;;;;;5134334;27;20129;-81
2024/04/18 17:18:49;;;;;;;5.90;4.25;;;6.00;1.00;;;;;;5139783;27;20024;-82
2024/04/18 17:21:48;;;;;;;4.43;3.78;;;5.90;1.00;;;;;;5156592;27;20005;-82
2024/04/18 17:25:16;;;;;;;;;;;;;;;;;;;;;
2024/04/18 17:28:48;;;;;;;5.75;4.35;;;5.60;1.00;;;;;;5124731;27;20015;-83